Petersburg, AK

4:58 PM AKDT on October 24, 2014 (GMT -0800)
Johnson Petersburg | Change Station
CLOSE
Current Station
Airport
Location: Petersburg,
Elevation: 0 ft
Nearby Weather Stations

Elev 0 ft 56.82 °N, 132.97 °W | Updated 22 minutes ago

Overcast
Overcast
45 °F
Feels Like 45 °F
N
0
Wind Variable Wind from North

Today
High -- | Low -- °F
--% Chance of Precip.
Yesterday
High -- | Low -- °F
Precip. -- in
7:46 AM 5:27 PM
New Moon, 1% visible
Pressure 29.86 in
Visibility 10.0 miles
Clouds Few 700 ft
Mostly Cloudy 5000 ft
Overcast 7000 ft
Dew Point 39 °F
Humidity 81%
Rainfall 0.18 in
Snow Depth Not available.
UV 0 out of 12
Pollen Not available.
Air Quality Not available.
Flu Activity Local Activity
METAR PAPG 250036Z 00000KT 10SM FEW007 BKN050 OVC070 07/04 A2986 RMK AO1 WEA: NONE

More Conditions Fewer Conditions

Pressure 29.86 in
Visibility 10.0 miles
Clouds Few 700 ft
Mostly Cloudy 5000 ft
Overcast 7000 ft
Dew Point 39 °F
Humidity 81%
Rainfall 0.18 in
Snow Depth Not available.
UV 0 out of 12
Pollen Not available.
Air Quality Not available.
Flu Activity Local Activity
METAR PAPG 250036Z 00000KT 10SM FEW007 BKN050 OVC070 07/04 A2986 RMK AO1 WEA: NONE

More Conditions Fewer Conditions

10-Day Weather Forecast

Almanac

Astronomy

Oct. 24, 2014 Rise Set
Actual Time 7:46 AM AKDT 5:27 PM AKDT
Civil Twilight 7:06 AM AKDT 6:07 PM AKDT
Nautical Twilight 6:22 AM AKDT 6:51 PM AKDT
Astronomical Twilight 5:37 AM AKDT 7:35 PM AKDT
Moon 8:40 AM AKDT (10/24) 6:01 PM AKDT (10/24)
Length of Visible Light 11h 00m
Length of Day
9h 41m
Tomorrow will be 4m 36s shorter.
New Moon, 1% of the Moon is Illuminated
Today
New Moon
Oct 30
First Quarter
Nov 6
Full
Nov 14
Last Quarter
Nov 22
New

Today's Extremes

State Highs State Lows

Community

WunderPhotos

Upload Photos

1,764,735 photos uploaded!

WunderBlogs® & News

Nearby

Snow Depth

Station Depth Elevation
Long Lake 0 in 820 ft
Upper Tsaina River 11 in 1750 ft
Moraine 0 in 2100 ft
Grandview 3 in 1100 ft
Grouse Creek Divide 0 in 700 ft

Earthquake Activity

City Distance Mag. Time & Date
No recent earthquake activity has been reported nearby.
Minimum magnitude displayed is 2.5.

Coastal Water Temperatures

Place Temperature
No Stations Reporting

Nearby Weather Stations